Del Norte, CO (81132)

5:21 AM MDT on August 05, 2015 (GMT -0600)
CAIC | | Change Station
CLOSE
Current Station
Personal Weather Station
Location: Summitville, CO
Elevation: 11799 ft
Nearby Weather Stations

Elev 11799 ft 37.48 °N, 106.79 °W | Updated 3 hours ago

Clear
Clear
52 °F
Feels Like 52 °F
N
4
Wind Variable Wind from SSE
Gusts 8.0 mph

Today
High -- | Low -- °F
--% Chance of Precip.
Yesterday
High -- | Low -- °F
Precip. -- in
6:12 AM 8:09 PM
Waning Gibbous, 68% visible
Pressure 30.09 in
Visibility 10.0 miles
Clouds Clear
Dew Point 29 °F
Humidity 41%
Rainfall in
Snow Depth Not available.
UV 0 out of 12
Pollen 8.00 out of 12
Air Quality Not available.
Flu Activity Not available.
METAR KALS 051052Z AUTO 00000KT 10SM CLR 08/05 A3035 RMK AO2 SLP190 T00830050

More Conditions Fewer Conditions

Pressure 30.09 in
Visibility 10.0 miles
Clouds Clear
Dew Point 29 °F
Humidity 41%
Rainfall in
Snow Depth Not available.
UV 0 out of 12
Pollen 8.00 out of 12
Air Quality Not available.
Flu Activity Not available.
METAR KALS 051052Z AUTO 00000KT 10SM CLR 08/05 A3035 RMK AO2 SLP190 T00830050

More Conditions Fewer Conditions

10-Day Weather Forecast

×

Almanac

Astronomy

Aug. 05, 2015 Rise Set
Actual Time
Civil Twilight
Nautical Twilight
Astronomical Twilight
Moon
Length of Visible Light
Length of Day
Tomorrow will be .
, % of the Moon is Illuminated

Today's Extremes

State Highs State Lows

Community

WunderPhotos

Upload Photos

1,844,133 photos uploaded!

WunderBlogs® & News

Nearby

Air Quality

  Air Quality AQ Index Pollutant
Not available.

Snow Depth

Station Depth Elevation

Earthquake Activity

City Distance Mag. Time & Date
Minimum magnitude displayed is 2.5.

Coastal Water Temperatures

Place Temperature

Stations

Nearby Weather Stations

Station Location Temp. Windchill Dew Point Humidity Wind Precip. Elev Updated Type